Time;durP1;ratioP1;P1;durP2;ratioP2;P2;SDS_P1;SDS_P2;PMS_P1;PMS_P2;Temp;Humidity;BMP_temperature;BMP_pressure;BME280_temperature;BME280_humidity;BME280_pressure;Samples;Min_cycle;Max_cycle;Signal;HPM_P1;HPM_P2
2021/12/26 00:02:17;;;;;;;3.03;2.63;;;3.40;64.00;;;;;;4990251;28;20041;-52
2021/12/26 00:04:44;;;;;;;6.20;3.22;;;3.40;64.00;;;;;;4988062;28;20076;-49
2021/12/26 00:07:11;;;;;;;4.82;3.30;;;3.40;64.10;;;;;;5015257;28;20045;-51
2021/12/26 00:09:38;;;;;;;4.07;2.67;;;3.40;64.20;;;;;;5019402;28;20567;-51
2021/12/26 00:12:05;;;;;;;5.47;2.92;;;3.40;64.20;;;;;;5004842;28;20117;-49
2021/12/26 00:14:34;;;;;;;5.97;3.17;;;3.40;64.30;;;;;;5013548;28;20053;-52
2021/12/26 00:17:01;;;;;;;4.97;3.05;;;3.40;64.40;;;;;;5004817;28;20061;-50
2021/12/26 00:19:28;;;;;;;4.47;2.63;;;3.40;64.40;;;;;;5029285;28;20103;-51
2021/12/26 00:21:55;;;;;;;4.50;3.42;;;3.40;64.50;;;;;;5024397;28;20041;-52
2021/12/26 00:24:22;;;;;;;4.22;3.13;;;3.40;64.50;;;;;;5017826;28;20075;-52
2021/12/26 00:26:51;;;;;;;3.40;3.10;;;3.40;64.60;;;;;;5008525;28;20042;-51
2021/12/26 00:29:18;;;;;;;4.28;3.20;;;3.30;64.70;;;;;;5010023;28;20042;-52
2021/12/26 00:31:47;;;;;;;4.88;3.25;;;3.40;64.90;;;;;;5007062;28;20034;-50
2021/12/26 00:34:14;;;;;;;4.90;2.53;;;3.30;64.90;;;;;;4987038;28;20042;-47
2021/12/26 00:36:41;;;;;;;3.83;3.42;;;3.30;65.00;;;;;;5009036;28;20127;-49
2021/12/26 00:39:10;;;;;;;4.20;2.78;;;3.30;65.10;;;;;;5011844;28;20045;-49
2021/12/26 00:41:39;;;;;;;3.95;3.20;;;3.30;65.30;;;;;;4991229;28;20725;-52
2021/12/26 00:44:08;;;;;;;4.75;3.17;;;3.30;65.30;;;;;;5024950;28;20468;-51
2021/12/26 00:46:36;;;;;;;4.13;3.35;;;3.40;65.40;;;;;;5028644;28;20120;-48
2021/12/26 00:49:03;;;;;;;4.85;3.35;;;3.40;65.40;;;;;;5015838;28;20493;-48
2021/12/26 00:51:30;;;;;;;4.78;3.60;;;3.40;65.70;;;;;;5008943;28;20735;-50
2021/12/26 00:53:57;;;;;;;5.35;3.08;;;3.40;65.80;;;;;;5021585;28;20038;-51
2021/12/26 00:56:24;;;;;;;3.70;3.22;;;3.40;65.90;;;;;;5027669;28;20050;-52
2021/12/26 00:58:51;;;;;;;4.43;3.17;;;3.50;66.10;;;;;;5026746;28;20038;-49
2021/12/26 01:01:18;;;;;;;3.78;2.90;;;3.50;66.20;;;;;;4991824;28;20042;-49
2021/12/26 01:03:46;;;;;;;5.65;3.20;;;3.60;66.30;;;;;;4991433;28;20054;-48
2021/12/26 01:06:13;;;;;;;4.38;3.33;;;3.60;66.40;;;;;;4990152;28;20164;-48
2021/12/26 01:08:42;;;;;;;4.78;3.67;;;3.70;66.50;;;;;;5007212;28;20517;-48
2021/12/26 01:11:22;;;;;;;4.57;3.20;;;3.70;66.50;;;;;;4997286;28;20045;-50
2021/12/26 01:13:50;;;;;;;4.00;3.60;;;3.80;66.60;;;;;;5029267;28;20136;-51
2021/12/26 01:16:31;;;;;;;5.78;3.35;;;3.80;66.50;;;;;;4978860;28;20053;-50
2021/12/26 01:19:06;;;;;;;6.07;3.65;;;3.90;66.50;;;;;;4989459;28;20041;-50
2021/12/26 01:21:34;;;;;;;5.80;3.45;;;3.90;66.40;;;;;;5005169;28;20054;-49
2021/12/26 01:24:14;;;;;;;4.90;3.50;;;3.90;66.40;;;;;;5012173;28;20046;-52
2021/12/26 01:26:42;;;;;;;8.88;4.05;;;3.90;66.30;;;;;;5000139;28;20133;-48
2021/12/26 01:29:14;;;;;;;5.18;3.47;;;4.00;66.20;;;;;;4991367;28;20441;-52
2021/12/26 01:31:42;;;;;;;6.00;3.90;;;4.00;66.20;;;;;;5006878;28;20509;-49
2021/12/26 01:34:35;;;;;;;4.82;3.28;;;4.00;66.30;;;;;;5011549;28;20100;-50
2021/12/26 01:37:15;;;;;;;5.10;4.20;;;4.00;66.40;;;;;;5003263;28;20046;-50
2021/12/26 01:40:05;;;;;;;5.53;3.90;;;4.10;66.50;;;;;;4988042;28;20058;-50
2021/12/26 01:42:40;;;;;;;5.28;4.13;;;4.10;66.50;;;;;;5011923;28;20107;-49
2021/12/26 01:45:36;;;;;;;4.78;3.55;;;4.10;66.70;;;;;;5014568;28;20049;-50
2021/12/26 01:48:06;;;;;;;5.47;4.20;;;4.10;66.70;;;;;;5013680;28;20088;-47
2021/12/26 01:50:40;;;;;;;5.65;3.83;;;4.10;66.80;;;;;;5006443;28;20056;-48
2021/12/26 01:53:08;;;;;;;4.10;3.40;;;4.20;67.00;;;;;;5014453;28;20045;-50
2021/12/26 01:58:08;;;;;;;6.82;4.13;;;4.20;67.10;;;;;;5014441;28;20041;-49
2021/12/26 02:00:38;;;;;;;4.47;3.63;;;4.30;67.20;;;;;;4996666;28;20074;-50
2021/12/26 02:03:05;;;;;;;4.90;4.18;;;4.30;67.20;;;;;;4994371;28;20144;-48
2021/12/26 02:05:33;;;;;;;4.97;3.55;;;4.40;67.30;;;;;;4991386;28;20054;-51
2021/12/26 02:08:05;;;;;;;4.80;4.30;;;4.40;67.30;;;;;;4995089;28;20070;-48
2021/12/26 02:10:32;;;;;;;5.07;3.85;;;4.40;67.30;;;;;;5011581;28;20065;-52
2021/12/26 02:12:59;;;;;;;4.22;3.65;;;4.50;67.20;;;;;;5013842;28;20061;-48
2021/12/26 02:15:26;;;;;;;5.25;4.18;;;4.50;67.20;;;;;;5007742;28;20092;-49
2021/12/26 02:18:04;;;;;;;5.30;3.70;;;4.50;67.90;;;;;;5018103;28;20048;-48
2021/12/26 02:21:02;;;;;;;4.38;3.78;;;4.60;67.30;;;;;;5013043;28;20045;-52
2021/12/26 02:29:02;;;;;;;5.63;3.92;;;4.70;67.30;;;;;;5007620;28;20046;-52
2021/12/26 02:31:31;;;;;;;4.93;3.33;;;4.70;67.30;;;;;;5012576;28;20041;-52
2021/12/26 02:33:58;;;;;;;4.47;3.60;;;4.70;67.30;;;;;;5019302;28;20385;-52
2021/12/26 02:36:25;;;;;;;6.57;3.90;;;4.70;67.40;;;;;;5008960;28;20068;-48
2021/12/26 02:38:53;;;;;;;6.03;4.28;;;4.80;67.50;;;;;;4974034;28;20043;-49
2021/12/26 02:41:20;;;;;;;6.43;4.22;;;4.80;67.50;;;;;;4981412;28;20038;-48
2021/12/26 02:43:47;;;;;;;5.97;4.20;;;4.80;67.50;;;;;;5000239;28;20072;-48
2021/12/26 02:46:14;;;;;;;6.47;4.43;;;4.80;67.50;;;;;;5003782;28;20073;-48
2021/12/26 02:48:41;;;;;;;5.43;4.68;;;4.80;67.50;;;;;;5014054;28;20136;-48
2021/12/26 02:51:09;;;;;;;5.60;4.30;;;4.90;67.50;;;;;;5012921;28;20114;-50
2021/12/26 02:53:37;;;;;;;5.72;3.85;;;4.90;67.40;;;;;;4991274;28;20298;-51
2021/12/26 02:56:07;;;;;;;5.53;4.18;;;4.90;67.40;;;;;;5012090;28;20048;-51
2021/12/26 02:58:36;;;;;;;8.48;4.75;;;4.90;67.20;;;;;;5012545;28;20136;-52
2021/12/26 03:01:14;;;;;;;7.32;4.65;;;4.90;67.20;;;;;;5010922;28;20042;-48
2021/12/26 03:03:41;;;;;;;5.13;4.18;;;4.90;67.10;;;;;;4991636;28;20046;-48
2021/12/26 03:06:30;;;;;;;5.50;4.50;;;4.90;67.10;;;;;;5006105;28;20057;-51
2021/12/26 03:08:57;;;;;;;4.70;3.65;;;4.90;67.70;;;;;;5003134;28;20038;-52
2021/12/26 03:11:24;;;;;;;4.55;3.63;;;4.80;67.10;;;;;;5009258;28;20573;-52
2021/12/26 03:13:54;;;;;;;6.55;4.35;;;4.80;67.20;;;;;;4999724;28;20128;-50
2021/12/26 03:16:21;;;;;;;5.05;4.03;;;4.80;67.30;;;;;;5004029;28;20079;-48
2021/12/26 03:18:49;;;;;;;6.05;4.38;;;4.80;67.30;;;;;;5013149;28;20619;-49
2021/12/26 03:21:18;;;;;;;5.75;3.95;;;4.80;67.30;;;;;;4998140;28;20038;-52
2021/12/26 03:23:46;;;;;;;7.05;4.78;;;4.70;67.30;;;;;;5025732;28;20049;-52
2021/12/26 03:26:13;;;;;;;5.85;4.50;;;4.70;67.40;;;;;;5029940;28;20586;-48
2021/12/26 03:28:40;;;;;;;5.07;3.95;;;4.70;68.00;;;;;;5013032;28;20042;-51
2021/12/26 03:31:07;;;;;;;5.95;4.13;;;4.70;67.30;;;;;;5019535;28;20054;-49
2021/12/26 03:33:38;;;;;;;8.27;4.25;;;4.60;67.20;;;;;;5009451;28;20049;-52
2021/12/26 03:36:05;;;;;;;6.47;4.30;;;4.60;67.30;;;;;;5012074;28;20054;-52
2021/12/26 03:38:33;;;;;;;7.47;4.97;;;4.60;67.30;;;;;;5011982;28;20045;-52
2021/12/26 03:41:23;;;;;;;6.07;4.43;;;4.50;67.30;;;;;;5007854;28;20053;-51
2021/12/26 03:43:57;;;;;;;6.35;4.30;;;4.50;67.30;;;;;;5019774;28;20073;-50
2021/12/26 03:46:23;;;;;;;6.00;4.70;;;4.50;67.40;;;;;;5011882;28;20049;-49
2021/12/26 03:48:50;;;;;;;7.72;5.25;;;4.40;67.40;;;;;;5000361;28;20073;-53
2021/12/26 03:51:19;;;;;;;6.22;4.25;;;4.40;67.50;;;;;;5001406;28;20045;-49
2021/12/26 03:53:48;;;;;;;6.70;4.82;;;4.40;67.60;;;;;;5012673;28;20045;-51
2021/12/26 03:56:16;;;;;;;6.97;4.97;;;4.30;67.60;;;;;;4998666;28;20133;-48
2021/12/26 03:58:58;;;;;;;5.65;4.53;;;4.30;67.70;;;;;;5001403;28;20453;-50
2021/12/26 04:01:26;;;;;;;7.32;4.22;;;4.30;67.70;;;;;;5004003;28;20059;-52
2021/12/26 04:03:54;;;;;;;6.85;5.10;;;4.20;67.80;;;;;;4997508;28;20049;-50
2021/12/26 04:06:20;;;;;;;5.60;4.78;;;4.20;67.90;;;;;;4998222;28;20132;-48
2021/12/26 04:08:47;;;;;;;7.00;3.97;;;4.20;68.00;;;;;;4995801;28;20099;-51
2021/12/26 04:11:14;;;;;;;7.45;5.05;;;4.10;68.10;;;;;;5006494;28;20049;-48
2021/12/26 04:13:44;;;;;;;6.75;4.45;;;4.10;68.20;;;;;;5012838;28;20038;-49
2021/12/26 04:16:12;;;;;;;5.82;4.50;;;4.10;68.30;;;;;;4994246;28;20053;-51
2021/12/26 04:18:39;;;;;;;6.95;5.10;;;4.10;68.40;;;;;;4996134;28;20568;-49
2021/12/26 04:21:08;;;;;;;6.93;4.80;;;4.10;68.40;;;;;;5005048;28;20121;-48
2021/12/26 04:23:41;;;;;;;7.00;4.78;;;4.10;68.50;;;;;;5011017;28;20046;-48
2021/12/26 04:26:11;;;;;;;8.02;5.10;;;4.10;68.60;;;;;;5002620;28;20058;-51
2021/12/26 04:28:38;;;;;;;6.28;4.57;;;4.10;68.80;;;;;;4996779;28;20045;-49
2021/12/26 04:31:05;;;;;;;5.75;4.18;;;4.10;68.90;;;;;;5010769;28;20509;-47
2021/12/26 04:33:34;;;;;;;8.10;4.93;;;4.10;69.00;;;;;;5011976;28;20681;-48
2021/12/26 04:36:02;;;;;;;6.47;4.85;;;4.10;69.10;;;;;;5002221;28;20132;-52
2021/12/26 04:38:29;;;;;;;5.90;4.72;;;4.10;69.20;;;;;;5001145;28;20049;-52
2021/12/26 04:40:56;;;;;;;6.10;5.05;;;4.10;69.30;;;;;;5018430;28;20037;-50
2021/12/26 04:43:42;;;;;;;7.43;5.22;;;4.20;70.00;;;;;;5023826;28;20052;-51
2021/12/26 04:46:18;;;;;;;6.50;4.80;;;4.20;69.40;;;;;;5010200;28;20421;-49
2021/12/26 04:49:11;;;;;;;7.55;5.05;;;4.20;69.40;;;;;;4997829;28;20175;-50
2021/12/26 04:51:38;;;;;;;6.40;5.20;;;4.30;69.50;;;;;;5010635;28;20076;-51
2021/12/26 04:54:07;;;;;;;6.32;4.82;;;4.30;69.40;;;;;;4995399;28;20045;-50
2021/12/26 04:56:34;;;;;;;6.35;5.18;;;4.30;69.50;;;;;;4994706;28;20095;-49
2021/12/26 04:59:02;;;;;;;7.97;5.18;;;4.40;69.50;;;;;;5007195;28;20677;-51
2021/12/26 05:01:29;;;;;;;6.72;5.22;;;4.40;69.50;;;;;;4990881;28;20513;-50
2021/12/26 05:03:58;;;;;;;6.40;4.75;;;4.40;69.40;;;;;;5011948;28;20064;-52
2021/12/26 05:06:29;;;;;;;7.30;5.32;;;4.50;69.50;;;;;;5005007;28;20053;-48
2021/12/26 05:08:56;;;;;;;8.57;5.45;;;4.60;69.50;;;;;;5011226;28;20050;-51
2021/12/26 05:11:22;;;;;;;6.25;4.78;;;4.60;69.40;;;;;;5010817;28;20172;-51
2021/12/26 05:13:49;;;;;;;7.78;5.55;;;4.60;69.30;;;;;;5013512;28;20037;-50
2021/12/26 05:16:16;;;;;;;8.82;5.85;;;4.60;69.30;;;;;;5001766;28;20483;-51
2021/12/26 05:18:44;;;;;;;8.25;5.22;;;4.70;69.30;;;;;;5014713;28;20041;-52
2021/12/26 05:21:11;;;;;;;7.95;5.40;;;4.70;69.30;;;;;;5008208;28;20034;-51
2021/12/26 05:23:40;;;;;;;7.00;5.15;;;4.70;69.30;;;;;;5001831;28;20042;-50
2021/12/26 05:26:07;;;;;;;8.02;5.60;;;4.80;69.30;;;;;;5013838;28;20053;-48
2021/12/26 05:28:34;;;;;;;7.30;5.30;;;4.80;69.20;;;;;;5015244;28;20111;-48
2021/12/26 05:31:03;;;;;;;12.65;5.57;;;4.80;69.20;;;;;;5000468;28;20042;-49
2021/12/26 05:33:37;;;;;;;8.30;5.22;;;4.80;69.10;;;;;;4998696;28;20128;-52
2021/12/26 05:36:04;;;;;;;7.10;4.85;;;4.90;69.10;;;;;;5007688;28;20050;-52
2021/12/26 05:38:34;;;;;;;7.93;5.22;;;4.90;69.20;;;;;;4998253;28;20104;-52
2021/12/26 05:41:01;;;;;;;8.57;5.72;;;4.90;69.10;;;;;;4996156;28;20053;-52
2021/12/26 05:43:31;;;;;;;6.38;5.35;;;4.90;69.00;;;;;;5006519;28;20037;-48
2021/12/26 05:45:59;;;;;;;5.45;4.78;;;5.00;69.00;;;;;;5013527;28;20045;-52
2021/12/26 05:48:28;;;;;;;9.45;5.50;;;5.00;68.90;;;;;;5031218;28;20056;-52
2021/12/26 05:50:54;;;;;;;9.10;6.60;;;5.00;68.90;;;;;;4996791;28;20041;-49
2021/12/26 05:53:54;;;;;;;8.90;5.93;;;5.00;68.80;;;;;;4981309;28;20139;-48
2021/12/26 05:56:20;;;;;;;8.57;5.55;;;5.00;68.80;;;;;;5013265;28;20049;-51
2021/12/26 05:58:53;;;;;;;9.27;6.13;;;5.00;68.80;;;;;;5011241;28;20046;-51
2021/12/26 06:01:22;;;;;;;8.18;5.72;;;5.00;68.80;;;;;;4989154;28;20054;-48
2021/12/26 06:03:49;;;;;;;8.52;5.63;;;5.00;68.80;;;;;;5012680;28;20497;-50
2021/12/26 06:06:16;;;;;;;7.72;5.05;;;5.00;68.80;;;;;;5008958;28;20045;-49
2021/12/26 06:08:46;;;;;;;8.27;5.65;;;5.00;68.90;;;;;;5010367;28;20041;-48
2021/12/26 06:11:13;;;;;;;7.82;5.47;;;5.00;68.90;;;;;;4999712;28;20398;-48
2021/12/26 06:13:40;;;;;;;9.00;6.60;;;5.00;69.00;;;;;;5011418;28;20050;-49
2021/12/26 06:16:07;;;;;;;9.18;6.07;;;5.00;69.00;;;;;;4983088;28;21409;-49
2021/12/26 06:18:37;;;;;;;8.10;5.40;;;5.00;69.00;;;;;;4985559;28;20590;-48
2021/12/26 06:21:22;;;;;;;8.15;5.25;;;5.00;68.90;;;;;;5004557;28;20421;-52
2021/12/26 06:24:25;;;;;;;7.70;5.77;;;5.00;68.70;;;;;;4988918;28;20699;-50
2021/12/26 06:27:10;;;;;;;11.00;6.55;;;5.00;68.50;;;;;;5001304;28;20272;-52
2021/12/26 06:30:09;;;;;;;8.73;6.50;;;5.00;68.40;;;;;;5012516;28;20215;-52
2021/12/26 06:32:55;;;;;;;6.82;5.13;;;4.90;68.40;;;;;;5031122;28;20152;-53
2021/12/26 06:35:42;;;;;;;8.98;6.28;;;4.90;68.40;;;;;;5001285;28;20057;-49
2021/12/26 06:38:31;;;;;;;9.63;6.78;;;4.80;69.00;;;;;;5004405;28;20512;-51
2021/12/26 06:41:17;;;;;;;9.02;5.95;;;4.70;68.40;;;;;;4992850;28;20096;-48
2021/12/26 06:44:03;;;;;;;10.75;6.47;;;4.70;68.50;;;;;;5011588;28;20135;-51
2021/12/26 06:46:50;;;;;;;9.85;6.00;;;4.60;68.60;;;;;;5005171;28;20064;-52
2021/12/26 06:49:43;;;;;;;9.98;6.47;;;4.70;68.80;;;;;;5013744;28;20064;-48
2021/12/26 06:52:10;;;;;;;9.45;6.63;;;4.50;68.90;;;;;;5009041;28;20045;-51
2021/12/26 06:54:40;;;;;;;9.68;6.90;;;4.50;69.20;;;;;;5014696;28;20061;-51
2021/12/26 06:57:07;;;;;;;12.52;7.18;;;4.50;69.40;;;;;;4998115;28;20041;-50
2021/12/26 06:59:34;;;;;;;12.38;7.80;;;4.50;69.70;;;;;;5019933;28;20042;-51
2021/12/26 07:02:02;;;;;;;9.82;7.45;;;4.50;69.90;;;;;;5012938;28;20596;-49
2021/12/26 07:04:52;;;;;;;9.38;7.22;;;4.50;70.20;;;;;;5004653;28;20041;-52
2021/12/26 07:07:23;;;;;;;12.15;7.22;;;4.60;70.20;;;;;;5000574;28;20045;-47
2021/12/26 07:09:51;;;;;;;11.23;7.57;;;4.60;70.30;;;;;;5006029;28;20037;-51
2021/12/26 07:12:19;;;;;;;11.80;8.10;;;4.60;70.40;;;;;;5013667;28;20504;-49
2021/12/26 07:14:57;;;;;;;18.65;12.05;;;4.60;70.50;;;;;;4997984;28;20099;-51
2021/12/26 07:17:25;;;;;;;16.25;10.82;;;4.70;70.60;;;;;;5003186;28;20052;-50
2021/12/26 07:19:54;;;;;;;15.10;9.80;;;4.70;70.60;;;;;;4998566;28;20124;-49
2021/12/26 07:22:51;;;;;;;16.33;11.02;;;4.70;70.60;;;;;;4955446;28;20112;-51
2021/12/26 07:25:18;;;;;;;15.18;9.57;;;4.80;70.60;;;;;;5008150;28;20033;-51
2021/12/26 07:27:44;;;;;;;13.05;8.55;;;4.80;70.50;;;;;;5026147;28;20049;-50
2021/12/26 07:30:30;;;;;;;13.98;8.73;;;4.90;70.50;;;;;;5029520;28;20068;-49
2021/12/26 07:32:57;;;;;;;14.88;9.52;;;4.90;70.50;;;;;;5003877;28;20054;-50
2021/12/26 07:35:24;;;;;;;15.32;10.77;;;5.00;70.50;;;;;;4999608;28;20045;-52
2021/12/26 07:38:00;;;;;;;13.63;8.98;;;5.00;70.40;;;;;;4997043;28;20037;-49
2021/12/26 07:40:27;;;;;;;12.65;9.10;;;5.00;70.30;;;;;;4984689;28;20045;-51
2021/12/26 07:43:03;;;;;;;14.88;10.15;;;5.10;70.30;;;;;;4996393;28;20489;-50
2021/12/26 07:46:02;;;;;;;14.60;9.73;;;5.10;70.30;;;;;;5011803;28;20519;-50
2021/12/26 07:48:29;;;;;;;15.23;10.00;;;5.10;70.20;;;;;;5011567;28;20046;-52
2021/12/26 07:50:59;;;;;;;13.13;9.32;;;5.20;70.20;;;;;;5019659;28;20050;-48
2021/12/26 07:53:46;;;;;;;13.50;9.50;;;5.20;70.10;;;;;;4997235;28;20049;-52
2021/12/26 07:56:39;;;;;;;13.43;9.35;;;5.20;70.10;;;;;;5021015;28;20548;-50
2021/12/26 07:59:24;;;;;;;14.30;9.38;;;5.30;70.10;;;;;;5021325;28;20224;-49
2021/12/26 08:02:26;;;;;;;13.73;8.90;;;5.30;70.10;;;;;;4975041;28;20057;-52
2021/12/26 08:05:12;;;;;;;12.75;8.65;;;5.40;70.00;;;;;;5005318;28;20065;-53
2021/12/26 08:07:57;;;;;;;16.55;10.55;;;5.40;69.90;;;;;;4977940;28;20046;-48
2021/12/26 08:10:27;;;;;;;14.68;9.52;;;5.40;69.90;;;;;;4986880;28;20041;-52
2021/12/26 08:12:54;;;;;;;13.98;9.30;;;5.50;70.00;;;;;;4980600;28;20057;-49
2021/12/26 08:15:21;;;;;;;14.52;9.07;;;5.50;70.00;;;;;;4996118;28;20077;-52
2021/12/26 08:17:48;;;;;;;14.45;9.40;;;5.50;70.00;;;;;;4997252;28;20045;-52
2021/12/26 08:20:17;;;;;;;13.77;9.52;;;5.50;70.00;;;;;;4999522;28;20042;-50
2021/12/26 08:22:44;;;;;;;12.95;9.45;;;5.60;69.90;;;;;;4998407;28;20069;-52
2021/12/26 08:25:11;;;;;;;13.90;9.18;;;5.60;69.80;;;;;;5008515;28;20049;-52
2021/12/26 08:27:38;;;;;;;14.40;9.30;;;5.60;69.80;;;;;;4998143;28;20118;-48
2021/12/26 08:30:06;;;;;;;16.77;10.85;;;5.60;69.80;;;;;;5007138;28;20077;-51
2021/12/26 08:32:36;;;;;;;14.57;9.80;;;5.70;70.20;;;;;;5001997;28;20449;-51
2021/12/26 08:35:05;;;;;;;12.60;8.60;;;5.70;69.80;;;;;;5007074;28;20041;-49
2021/12/26 08:37:32;;;;;;;13.95;9.85;;;5.70;69.80;;;;;;4995803;28;20042;-51
2021/12/26 08:39:59;;;;;;;13.60;9.70;;;5.80;69.90;;;;;;5003673;28;20077;-52
2021/12/26 08:42:26;;;;;;;14.45;9.02;;;5.80;69.70;;;;;;4993181;28;20038;-49
2021/12/26 08:44:53;;;;;;;14.43;8.82;;;5.80;69.60;;;;;;5004460;28;20445;-51
2021/12/26 08:47:19;;;;;;;13.85;9.20;;;5.80;69.60;;;;;;4994140;28;20065;-50
2021/12/26 08:49:46;;;;;;;13.27;9.18;;;5.90;69.70;;;;;;5014886;28;20103;-50
2021/12/26 08:52:13;;;;;;;14.85;9.52;;;5.90;69.70;;;;;;4991088;28;20128;-52
2021/12/26 08:54:40;;;;;;;14.43;9.05;;;5.90;69.60;;;;;;5006125;28;20648;-48
2021/12/26 08:57:08;;;;;;;14.45;9.80;;;5.90;69.70;;;;;;4996420;28;20060;-52
2021/12/26 08:59:37;;;;;;;13.85;9.57;;;6.00;69.70;;;;;;5005631;28;20038;-48
2021/12/26 09:02:07;;;;;;;16.05;10.10;;;6.00;69.60;;;;;;4991046;28;20046;-52
2021/12/26 09:04:38;;;;;;;13.77;9.65;;;6.00;69.60;;;;;;5006897;28;20532;-51
2021/12/26 09:07:06;;;;;;;15.63;11.07;;;6.00;69.60;;;;;;4994928;28;20142;-50
2021/12/26 09:09:34;;;;;;;13.57;10.05;;;6.10;69.60;;;;;;5005285;28;20460;-52
2021/12/26 09:12:02;;;;;;;14.05;9.18;;;6.10;69.50;;;;;;5000290;28;20103;-47
2021/12/26 09:14:29;;;;;;;14.98;10.10;;;6.20;69.50;;;;;;5011023;28;20041;-49
2021/12/26 09:16:57;;;;;;;15.27;10.32;;;6.10;69.50;;;;;;4989680;28;20537;-51
2021/12/26 09:19:27;;;;;;;15.48;9.63;;;6.20;69.50;;;;;;5006063;28;20050;-52
2021/12/26 09:22:00;;;;;;;14.02;9.00;;;6.20;69.50;;;;;;5000315;28;20033;-52
2021/12/26 09:24:27;;;;;;;;;;;6.30;69.40;;;;;;5006191;28;20054;-49
2021/12/26 09:26:53;;;;;;;15.30;10.57;;;6.30;69.40;;;;;;4995858;28;19979;-49
2021/12/26 09:29:21;;;;;;;14.48;10.05;;;6.30;69.30;;;;;;5012228;28;20049;-50
2021/12/26 09:31:48;;;;;;;12.63;9.07;;;6.40;69.30;;;;;;5000156;28;20106;-51
2021/12/26 09:34:16;;;;;;;14.20;9.90;;;6.40;69.40;;;;;;4994754;28;20038;-48
2021/12/26 09:36:44;;;;;;;14.10;8.77;;;6.40;69.40;;;;;;4994994;28;20062;-50
2021/12/26 09:39:11;;;;;;;14.88;10.35;;;6.50;69.40;;;;;;5010664;28;20038;-52
2021/12/26 09:41:39;;;;;;;11.90;9.20;;;6.50;69.40;;;;;;5001730;28;20296;-52
2021/12/26 09:44:07;;;;;;;14.50;9.65;;;6.60;69.40;;;;;;5006901;28;20057;-52
2021/12/26 09:46:35;;;;;;;18.08;10.80;;;6.60;69.30;;;;;;4980750;28;20046;-52
2021/12/26 09:49:03;;;;;;;14.85;10.15;;;6.60;69.10;;;;;;5003049;28;20409;-52
2021/12/26 09:51:30;;;;;;;15.75;9.82;;;6.60;69.10;;;;;;4994581;28;20528;-51
2021/12/26 09:53:56;;;;;;;14.85;10.05;;;6.70;69.20;;;;;;5005780;28;20091;-52
2021/12/26 09:56:28;;;;;;;11.38;8.85;;;6.70;69.20;;;;;;4998332;28;20114;-52
2021/12/26 09:59:04;;;;;;;13.57;9.75;;;6.80;69.20;;;;;;5009220;28;20107;-52
2021/12/26 10:01:36;;;;;;;12.60;9.40;;;6.80;68.90;;;;;;5008777;28;20054;-52
2021/12/26 10:04:31;;;;;;;14.68;9.30;;;6.90;69.00;;;;;;5011500;28;20091;-52
2021/12/26 10:07:14;;;;;;;12.63;8.25;;;7.00;68.80;;;;;;4996862;28;20108;-51
2021/12/26 10:09:48;;;;;;;15.13;9.50;;;7.00;68.90;;;;;;5006047;28;20046;-48
2021/12/26 10:12:16;;;;;;;14.30;9.52;;;7.00;68.70;;;;;;5005106;28;20519;-52
2021/12/26 10:14:48;;;;;;;15.65;9.63;;;7.00;69.30;;;;;;5010706;28;20071;-52
2021/12/26 10:17:23;;;;;;;14.18;9.88;;;7.10;68.70;;;;;;4999511;28;20034;-52
2021/12/26 10:19:53;;;;;;;14.60;9.60;;;7.10;68.80;;;;;;5005809;28;20050;-51
2021/12/26 10:22:26;;;;;;;14.23;9.90;;;7.20;68.80;;;;;;5001250;28;20100;-49
2021/12/26 10:24:54;;;;;;;15.30;9.98;;;7.20;68.80;;;;;;5015408;28;20045;-48
2021/12/26 10:27:31;;;;;;;16.23;10.30;;;7.20;68.70;;;;;;4998509;28;20533;-52
2021/12/26 10:30:01;;;;;;;13.30;9.60;;;7.30;68.60;;;;;;5004762;28;20111;-50
2021/12/26 10:32:38;;;;;;;17.27;11.75;;;7.30;68.60;;;;;;4995968;28;20054;-52
2021/12/26 10:35:12;;;;;;;20.35;11.63;;;7.40;68.50;;;;;;5010160;28;20506;-51
2021/12/26 10:37:47;;;;;;;15.13;12.07;;;7.40;68.60;;;;;;4980078;28;20046;-52
2021/12/26 10:40:19;;;;;;;13.38;9.93;;;7.40;68.50;;;;;;4987187;28;20056;-50
2021/12/26 10:42:53;;;;;;;12.30;9.53;;;7.50;68.60;;;;;;4979501;28;20108;-52
2021/12/26 10:45:23;;;;;;;17.23;11.35;;;7.50;68.50;;;;;;5015011;28;20100;-51
2021/12/26 10:47:52;;;;;;;14.63;10.38;;;7.50;68.50;;;;;;4999075;28;20048;-52
2021/12/26 10:50:21;;;;;;;17.95;10.90;;;7.60;68.40;;;;;;5000257;28;20049;-52
2021/12/26 10:52:55;;;;;;;16.77;11.48;;;7.60;68.40;;;;;;4995048;28;20050;-51
2021/12/26 10:55:37;;;;;;;13.63;9.93;;;7.60;68.30;;;;;;5017250;28;20058;-52
2021/12/26 10:58:07;;;;;;;14.33;9.87;;;7.70;68.00;;;;;;4983232;28;20521;-48
2021/12/26 11:00:37;;;;;;;14.40;9.65;;;7.80;68.30;;;;;;5006939;28;20522;-50
2021/12/26 11:03:07;;;;;;;15.35;10.18;;;7.80;68.20;;;;;;4992087;28;20048;-52
2021/12/26 11:05:44;;;;;;;13.40;9.77;;;7.80;68.10;;;;;;5007645;28;20115;-52
2021/12/26 11:08:16;;;;;;;14.07;9.90;;;7.80;67.80;;;;;;4997076;28;20073;-52
2021/12/26 11:10:50;;;;;;;12.35;9.77;;;7.90;67.90;;;;;;5001217;28;20657;-52
2021/12/26 11:13:31;;;;;;;16.98;10.48;;;7.90;67.80;;;;;;5000200;28;20133;-52
2021/12/26 11:16:06;;;;;;;16.77;10.68;;;7.90;67.90;;;;;;4996860;28;20108;-52
2021/12/26 11:18:37;;;;;;;15.07;11.13;;;8.00;67.90;;;;;;4997326;28;20038;-52
2021/12/26 11:21:09;;;;;;;12.70;10.35;;;8.00;67.90;;;;;;5009976;28;20087;-52
2021/12/26 11:23:38;;;;;;;;;;;8.10;67.80;;;;;;5006625;28;20516;-50
2021/12/26 11:26:08;;;;;;;13.45;9.40;;;8.10;67.80;;;;;;5003070;28;19925;-52
2021/12/26 11:28:38;;;;;;;12.85;9.82;;;8.20;67.80;;;;;;4996374;28;20045;-52
2021/12/26 11:31:11;;;;;;;18.08;12.57;;;8.30;67.70;;;;;;5008110;28;20111;-52
2021/12/26 11:33:39;;;;;;;16.88;11.65;;;8.30;67.80;;;;;;5004050;28;20501;-50
2021/12/26 11:36:09;;;;;;;13.32;9.52;;;8.30;67.70;;;;;;4993154;28;20680;-50
2021/12/26 11:38:38;;;;;;;12.27;9.95;;;8.30;67.50;;;;;;5000545;28;20092;-48
2021/12/26 11:41:44;;;;;;;14.45;11.50;;;8.30;67.40;;;;;;5009392;28;20056;-52
2021/12/26 11:44:54;;;;;;;13.45;10.13;;;8.40;67.10;;;;;;4996659;28;20053;-49
2021/12/26 11:47:58;;;;;;;13.63;9.57;;;8.40;66.80;;;;;;4994358;28;20049;-48
2021/12/26 11:51:15;;;;;;;13.35;9.40;;;8.40;67.30;;;;;;5010563;28;20100;-50
2021/12/26 11:54:17;;;;;;;15.23;10.52;;;8.50;66.90;;;;;;4999418;28;20060;-52
2021/12/26 11:57:20;;;;;;;12.68;9.35;;;8.40;67.20;;;;;;4980203;28;20706;-48
2021/12/26 12:00:13;;;;;;;12.30;9.52;;;8.40;67.10;;;;;;5007211;28;20540;-52
2021/12/26 12:02:48;;;;;;;12.90;9.52;;;8.40;67.20;;;;;;4992042;28;20080;-49
2021/12/26 12:05:25;;;;;;;17.38;10.48;;;8.40;67.40;;;;;;4993729;28;20064;-52
2021/12/26 12:07:58;;;;;;;13.35;9.98;;;8.40;67.40;;;;;;4998222;28;20077;-52
2021/12/26 12:10:52;;;;;;;15.40;10.48;;;8.40;67.30;;;;;;5015807;28;20045;-52
2021/12/26 12:13:21;;;;;;;12.80;9.35;;;8.40;67.30;;;;;;4989851;28;20050;-52
2021/12/26 12:15:51;;;;;;;13.35;10.77;;;8.40;67.50;;;;;;4994654;28;20034;-50
2021/12/26 12:18:24;;;;;;;13.25;9.68;;;8.40;67.50;;;;;;4981511;28;20057;-50
2021/12/26 12:21:15;;;;;;;13.75;10.57;;;8.20;67.40;;;;;;5016057;28;20533;-49
2021/12/26 12:24:04;;;;;;;14.07;9.77;;;8.40;67.20;;;;;;4997699;28;20564;-48
2021/12/26 12:26:39;;;;;;;14.88;11.18;;;8.40;67.30;;;;;;4994370;28;20049;-52
2021/12/26 12:29:07;;;;;;;13.85;9.90;;;8.40;67.30;;;;;;5004157;28;20034;-52
2021/12/26 12:31:35;;;;;;;16.33;11.00;;;8.40;67.50;;;;;;4997149;28;20050;-52
2021/12/26 12:34:10;;;;;;;12.68;10.27;;;8.30;67.50;;;;;;4998736;28;20124;-52
2021/12/26 12:36:41;;;;;;;12.45;9.05;;;8.40;67.60;;;;;;4998184;28;20053;-51
2021/12/26 12:39:19;;;;;;;11.77;9.82;;;8.40;67.70;;;;;;5003600;28;20050;-51
2021/12/26 12:41:52;;;;;;;13.30;9.70;;;8.30;67.50;;;;;;4994039;28;20629;-52
2021/12/26 12:44:36;;;;;;;13.25;10.02;;;8.40;67.70;;;;;;5002000;28;20113;-48
2021/12/26 12:47:13;;;;;;;12.95;8.45;;;8.40;67.60;;;;;;4992591;28;20054;-48
2021/12/26 12:49:45;;;;;;;12.40;9.02;;;8.30;67.90;;;;;;4994576;28;20054;-51
2021/12/26 12:52:37;;;;;;;13.90;9.90;;;8.40;68.00;;;;;;4996798;28;20509;-51
2021/12/26 12:55:20;;;;;;;12.93;9.30;;;8.40;68.00;;;;;;5004334;28;20516;-50
2021/12/26 12:57:50;;;;;;;13.93;9.77;;;8.40;68.00;;;;;;4995371;28;20053;-51
2021/12/26 13:00:26;;;;;;;11.07;8.82;;;8.40;68.10;;;;;;4994861;28;20096;-52
2021/12/26 13:02:53;;;;;;;15.57;11.13;;;8.50;68.20;;;;;;4994232;28;20744;-52
2021/12/26 13:05:26;;;;;;;15.60;11.73;;;8.40;68.10;;;;;;4986445;28;20042;-48
2021/12/26 13:08:05;;;;;;;12.77;9.50;;;8.50;68.20;;;;;;4999388;28;20104;-50
2021/12/26 13:10:33;;;;;;;13.50;9.65;;;8.50;68.70;;;;;;5002066;28;20410;-53
2021/12/26 13:13:15;;;;;;;12.18;9.40;;;8.50;68.20;;;;;;5000018;28;20137;-47
2021/12/26 13:16:08;;;;;;;12.02;9.55;;;8.50;67.90;;;;;;5007936;28;20065;-52
2021/12/26 13:18:38;;;;;;;11.02;8.82;;;8.50;67.80;;;;;;4994707;28;20081;-51
2021/12/26 13:21:09;;;;;;;13.57;11.35;;;8.50;68.10;;;;;;5000566;28;20120;-52
2021/12/26 13:23:39;;;;;;;12.38;9.65;;;8.50;68.20;;;;;;5000827;28;20034;-51
2021/12/26 13:26:10;;;;;;;12.52;9.93;;;8.50;68.20;;;;;;5001250;28;20045;-52
2021/12/26 13:28:39;;;;;;;11.87;9.17;;;8.50;68.10;;;;;;5001079;28;20049;-49